Time;durP1;ratioP1;P1;durP2;ratioP2;P2;SDS_P1;SDS_P2;PMS_P1;PMS_P2;Temp;Humidity;BMP_temperature;BMP_pressure;BME280_temperature;BME280_humidity;BME280_pressure;Samples;Min_cycle;Max_cycle;Signal;HPM_P1;HPM_P2
2021/03/14 00:00:27;;;;;;;3.83;2.58;;;;;;;5.73;100.00;95128.78;5017022;28;20045;-56
2021/03/14 00:02:55;;;;;;;;;;;;;;;5.67;100.00;95135.41;5060041;28;20040;-60
2021/03/14 00:05:22;;;;;;;3.40;2.28;;;;;;;5.64;100.00;95145.34;5038771;28;20342;-54
2021/03/14 00:07:49;;;;;;;2.30;2.20;;;;;;;5.60;100.00;95147.44;5072570;28;20098;-58
2021/03/14 00:10:17;;;;;;;2.58;2.00;;;;;;;5.69;100.00;95149.19;5033226;28;20036;-56
2021/03/14 00:12:43;;;;;;;2.90;2.08;;;;;;;5.72;100.00;95141.03;5049329;28;20036;-54
2021/03/14 00:15:13;;;;;;;2.22;2.10;;;;;;;5.68;100.00;95149.34;5023784;28;20314;-54
2021/03/14 00:17:41;;;;;;;2.17;1.98;;;;;;;5.72;100.00;95132.38;5063012;28;20037;-57
2021/03/14 00:20:09;;;;;;;2.15;2.05;;;;;;;5.67;100.00;95147.66;5022727;28;20519;-55
2021/03/14 00:22:36;;;;;;;2.85;2.17;;;;;;;5.64;100.00;95146.19;5061452;28;20066;-57
2021/03/14 00:25:05;;;;;;;2.30;2.20;;;;;;;5.47;100.00;95121.66;5025701;28;20527;-55
2021/03/14 00:27:32;;;;;;;2.45;2.00;;;;;;;5.48;100.00;95153.84;5065014;28;20098;-56
2021/03/14 00:30:00;;;;;;;2.45;2.25;;;;;;;5.45;100.00;95154.13;5047924;28;20040;-56
2021/03/14 00:32:28;;;;;;;2.38;2.17;;;;;;;5.33;100.00;95148.25;5067112;28;20041;-57
2021/03/14 00:34:55;;;;;;;2.38;2.05;;;;;;;5.28;100.00;95155.72;5066029;28;20395;-58
2021/03/14 00:37:23;;;;;;;2.38;2.20;;;;;;;5.37;100.00;95167.94;5040154;28;20047;-56
2021/03/14 00:39:50;;;;;;;2.78;2.53;;;;;;;5.38;100.00;95166.97;5043796;28;20515;-57
2021/03/14 00:42:18;;;;;;;2.45;2.17;;;;;;;5.31;100.00;95155.44;5022938;28;20036;-59
2021/03/14 00:44:45;;;;;;;2.63;2.38;;;;;;;5.42;100.00;95163.06;5069376;28;20033;-58
2021/03/14 00:47:12;;;;;;;2.50;2.33;;;;;;;5.38;100.00;95166.13;5028575;28;20549;-59
2021/03/14 00:49:40;;;;;;;2.17;2.03;;;;;;;5.39;100.00;95165.16;5069410;28;20090;-58
2021/03/14 00:52:07;;;;;;;2.35;2.10;;;;;;;5.36;100.00;95168.88;5025105;28;20700;-58
2021/03/14 00:54:34;;;;;;;3.17;2.45;;;;;;;5.35;100.00;95177.69;5069970;28;20048;-59
2021/03/14 00:57:01;;;;;;;2.65;2.45;;;;;;;5.32;100.00;95187.63;5035602;28;20475;-58
2021/03/14 00:59:28;;;;;;;2.50;2.25;;;;;;;5.34;100.00;95196.97;5070012;28;20041;-55
2021/03/14 01:01:54;;;;;;;2.38;2.20;;;;;;;5.20;100.00;95187.81;5015654;28;20054;-55
2021/03/14 01:04:22;;;;;;;2.40;2.20;;;;;;;5.19;100.00;95183.53;5068366;28;20048;-56
2021/03/14 01:06:49;;;;;;;2.35;2.15;;;;;;;5.17;100.00;95192.50;5029035;28;20500;-56
2021/03/14 01:09:16;;;;;;;3.20;2.35;;;;;;;5.11;100.00;95190.44;5074063;28;20380;-55
2021/03/14 01:11:44;;;;;;;2.70;2.03;;;;;;;4.98;100.00;95195.97;5026049;28;20047;-57
2021/03/14 01:14:11;;;;;;;2.35;2.25;;;;;;;4.95;100.00;95194.47;5068397;28;20519;-57
2021/03/14 01:16:38;;;;;;;2.33;2.22;;;;;;;4.91;100.00;95207.94;5050117;28;20122;-52
2021/03/14 01:19:06;;;;;;;2.50;2.08;;;;;;;4.92;100.00;95206.97;5020688;28;20051;-58
2021/03/14 01:21:33;;;;;;;2.55;2.22;;;;;;;4.90;100.00;95209.75;5065792;28;20044;-59
2021/03/14 01:24:01;;;;;;;3.53;2.80;;;;;;;4.82;100.00;95212.25;5010030;28;20090;-58
2021/03/14 01:26:28;;;;;;;3.28;2.30;;;;;;;4.76;100.00;95220.63;5078763;28;20069;-58
2021/03/14 01:28:54;;;;;;;2.50;2.30;;;;;;;4.69;100.00;95216.94;5028791;28;20037;-55
2021/03/14 01:31:21;;;;;;;2.53;2.33;;;;;;;4.71;100.00;95214.97;5073518;28;20064;-55
2021/03/14 01:33:49;;;;;;;2.83;2.63;;;;;;;4.66;100.00;95215.41;5034575;28;20504;-58
2021/03/14 01:36:16;;;;;;;2.72;2.53;;;;;;;4.59;100.00;95232.59;5070942;28;20045;-60
2021/03/14 01:38:43;;;;;;;2.80;2.17;;;;;;;4.59;100.00;95224.75;5026365;28;20036;-58
2021/03/14 01:41:11;;;;;;;3.35;2.47;;;;;;;4.39;100.00;95218.72;5064567;28;20049;-57
2021/03/14 01:43:38;;;;;;;2.30;2.10;;;;;;;4.26;100.00;95210.34;5025188;28;20066;-53
2021/03/14 01:46:06;;;;;;;3.17;2.15;;;;;;;4.18;100.00;95199.75;5063813;28;20077;-56
2021/03/14 01:48:35;;;;;;;2.30;2.20;;;;;;;4.16;100.00;95201.66;5029542;28;20094;-58
2021/03/14 01:51:04;;;;;;;2.90;2.38;;;;;;;4.18;100.00;95197.16;5061094;28;21660;-57
2021/03/14 01:53:31;;;;;;;3.83;2.97;;;;;;;4.05;100.00;95184.38;5027816;28;21222;-54
2021/03/14 01:55:58;;;;;;;2.20;2.10;;;;;;;3.95;100.00;95181.75;5067018;28;20097;-58
2021/03/14 01:58:27;;;;;;;2.60;2.40;;;;;;;3.93;100.00;95190.69;5045882;28;20060;-57
2021/03/14 02:00:55;;;;;;;2.38;2.28;;;;;;;3.98;100.00;95185.88;5065946;28;20064;-59
2021/03/14 02:03:23;;;;;;;2.63;2.53;;;;;;;3.94;100.00;95174.88;5065606;28;20040;-57
2021/03/14 02:05:50;;;;;;;2.70;2.53;;;;;;;3.85;100.00;95173.09;5048555;28;20040;-55
2021/03/14 02:08:18;;;;;;;2.72;2.53;;;;;;;3.89;100.00;95181.47;5063479;28;20052;-57
2021/03/14 02:10:46;;;;;;;2.80;2.60;;;;;;;3.78;100.00;95183.22;5036745;28;20040;-57
2021/03/14 02:13:16;;;;;;;2.58;2.38;;;;;;;3.78;100.00;95191.06;5061590;28;20095;-59
2021/03/14 02:15:46;;;;;;;2.58;2.38;;;;;;;3.80;100.00;95203.97;5024839;28;20064;-58
2021/03/14 02:18:14;;;;;;;2.80;2.60;;;;;;;3.76;100.00;95197.38;5063643;28;20120;-58
2021/03/14 02:20:41;;;;;;;2.53;2.42;;;;;;;3.87;100.00;95206.88;5019109;28;20044;-57
2021/03/14 02:23:27;;;;;;;2.50;2.30;;;;;;;3.83;100.00;95208.91;5056500;28;20458;-57
2021/03/14 02:25:58;;;;;;;2.55;2.38;;;;;;;3.80;100.00;95210.00;5020843;28;20086;-57
2021/03/14 02:28:26;;;;;;;2.67;2.35;;;;;;;3.78;100.00;95206.69;5076058;28;20115;-57
2021/03/14 02:30:53;;;;;;;2.55;2.45;;;;;;;3.76;100.00;95210.41;5028615;28;20076;-58
2021/03/14 02:33:23;;;;;;;2.40;2.28;;;;;;;3.75;100.00;95219.16;5060616;28;20048;-57
2021/03/14 02:35:53;;;;;;;2.20;2.10;;;;;;;3.82;100.00;95230.75;5033226;28;20066;-56
2021/03/14 02:38:20;;;;;;;2.80;2.67;;;;;;;3.75;100.00;95232.22;5065066;28;20584;-57
2021/03/14 02:40:47;;;;;;;2.22;2.13;;;;;;;3.67;100.00;95214.63;5033795;28;20136;-56
2021/03/14 02:43:14;;;;;;;2.40;2.30;;;;;;;3.77;100.00;95219.88;5064950;28;20047;-59
2021/03/14 02:45:43;;;;;;;2.42;2.33;;;;;;;3.66;100.00;95220.81;5025233;28;20060;-57
2021/03/14 02:48:10;;;;;;;2.28;2.17;;;;;;;3.80;100.00;95225.66;5061386;28;20041;-58
2021/03/14 02:50:38;;;;;;;2.40;2.30;;;;;;;3.73;100.00;95228.94;5038867;28;20496;-55
2021/03/14 02:53:05;;;;;;;2.45;2.35;;;;;;;3.63;100.00;95220.25;5061122;28;20086;-53
2021/03/14 02:55:33;;;;;;;2.72;2.60;;;;;;;3.69;100.00;95217.13;5064184;28;20679;-55
2021/03/14 02:58:00;;;;;;;2.42;2.33;;;;;;;3.63;100.00;95210.66;5051352;28;20089;-59
2021/03/14 03:00:28;;;;;;;2.50;2.40;;;;;;;3.59;100.00;95208.44;5070807;28;20045;-56
2021/03/14 03:02:57;;;;;;;2.45;2.35;;;;;;;3.60;100.00;95217.91;5030581;28;20577;-55
2021/03/14 03:05:25;;;;;;;2.50;2.40;;;;;;;3.58;100.00;95228.47;5066267;28;20029;-56
2021/03/14 03:07:54;;;;;;;2.22;2.13;;;;;;;3.61;100.00;95240.41;5040867;28;20036;-55
2021/03/14 03:10:22;;;;;;;2.78;2.60;;;;;;;3.58;100.00;95225.88;5064612;28;20386;-58
2021/03/14 03:12:50;;;;;;;2.20;2.10;;;;;;;3.61;100.00;95227.38;5028826;28;20055;-58
2021/03/14 03:15:18;;;;;;;2.63;2.53;;;;;;;3.70;100.00;95229.19;5058993;28;20038;-59
2021/03/14 03:17:45;;;;;;;2.28;2.17;;;;;;;3.70;100.00;95218.75;5023678;28;20444;-59
2021/03/14 03:20:24;;;;;;;2.20;2.10;;;;;;;3.75;100.00;95229.59;5063686;28;20043;-58
2021/03/14 03:22:51;;;;;;;2.22;2.13;;;;;;;3.81;100.00;95231.69;5025069;28;20086;-59
2021/03/14 03:25:19;;;;;;;2.70;2.60;;;;;;;3.77;100.00;95225.09;5064681;28;20045;-54
2021/03/14 03:27:46;;;;;;;2.45;2.35;;;;;;;3.81;100.00;95221.25;5024753;28;20036;-57
2021/03/14 03:30:15;;;;;;;2.30;2.20;;;;;;;3.86;100.00;95239.94;5074339;28;20071;-52
2021/03/14 03:32:44;;;;;;;2.45;2.35;;;;;;;3.95;100.00;95233.09;5023960;28;20044;-56
2021/03/14 03:35:14;;;;;;;2.50;2.40;;;;;;;3.83;100.00;95242.81;5066808;28;20044;-55
2021/03/14 03:37:43;;;;;;;2.30;2.20;;;;;;;3.82;100.00;95241.19;5033618;28;20098;-56
2021/03/14 03:40:12;;;;;;;2.70;2.60;;;;;;;3.91;100.00;95245.56;5068450;28;20071;-58
2021/03/14 03:42:46;;;;;;;2.53;2.42;;;;;;;3.86;100.00;95241.72;5023754;28;20040;-55
2021/03/14 03:45:13;;;;;;;2.67;2.58;;;;;;;3.77;100.00;95240.72;5065633;28;20049;-58
2021/03/14 03:47:42;;;;;;;2.20;2.10;;;;;;;3.79;100.00;95257.06;5021218;28;20040;-51
2021/03/14 03:50:10;;;;;;;2.80;2.63;;;;;;;3.77;100.00;95246.75;5058115;28;20037;-57
2021/03/14 03:52:38;;;;;;;2.40;2.30;;;;;;;3.85;100.00;95268.75;5069073;28;20044;-57
2021/03/14 03:55:07;;;;;;;2.50;2.40;;;;;;;3.94;100.00;95260.94;5019086;28;20136;-58
2021/03/14 03:57:34;;;;;;;2.30;2.20;;;;;;;3.86;100.00;95266.03;5067841;28;20072;-55
2021/03/14 04:00:02;;;;;;;2.55;2.45;;;;;;;3.81;100.00;95265.56;5038190;28;20047;-58
2021/03/14 04:02:30;;;;;;;2.38;2.28;;;;;;;3.86;100.00;95276.44;5065529;28;20831;-57
2021/03/14 04:05:03;;;;;;;2.38;2.28;;;;;;;3.83;100.00;95281.94;5031543;28;20051;-55
2021/03/14 04:07:30;;;;;;;2.78;2.67;;;;;;;3.95;100.00;95282.63;5070096;28;20126;-57
2021/03/14 04:09:57;;;;;;;2.40;2.30;;;;;;;3.84;100.00;95280.13;5028948;28;20047;-57
2021/03/14 04:12:25;;;;;;;2.47;2.38;;;;;;;3.74;100.00;95272.28;5058379;28;20102;-55
2021/03/14 04:14:52;;;;;;;2.42;2.33;;;;;;;3.81;100.00;95291.66;5021058;28;20091;-57
2021/03/14 04:17:19;;;;;;;2.72;2.63;;;;;;;3.76;100.00;95286.03;5061287;28;20037;-56
2021/03/14 04:19:47;;;;;;;2.35;2.25;;;;;;;3.75;100.00;95286.97;5023614;28;20043;-59
2021/03/14 04:22:14;;;;;;;2.47;2.38;;;;;;;3.77;100.00;95304.13;5067743;28;20454;-58
2021/03/14 04:24:42;;;;;;;2.40;2.30;;;;;;;3.71;100.00;95317.69;5028453;28;20095;-56
2021/03/14 04:27:10;;;;;;;2.38;2.28;;;;;;;3.73;100.00;95317.56;5068741;28;20053;-56
2021/03/14 04:29:38;;;;;;;2.30;2.20;;;;;;;3.68;100.00;95332.75;5032954;28;22504;-54
2021/03/14 04:32:06;;;;;;;2.38;2.28;;;;;;;3.54;100.00;95355.63;5072821;28;20044;-54
2021/03/14 04:34:33;;;;;;;3.03;2.35;;;;;;;3.44;100.00;95357.34;5032823;28;20037;-56
2021/03/14 04:37:00;;;;;;;2.58;2.47;;;;;;;3.25;100.00;95355.44;5063992;28;20071;-56
2021/03/14 04:39:27;;;;;;;2.30;2.20;;;;;;;3.01;100.00;95370.47;5063791;28;20447;-53
2021/03/14 04:41:54;;;;;;;2.78;2.67;;;;;;;2.82;100.00;95377.19;5021577;28;20053;-49
2021/03/14 04:44:21;;;;;;;3.03;2.92;;;;;;;2.85;100.00;95383.91;5067780;28;20037;-59
2021/03/14 04:46:50;;;;;;;2.45;2.35;;;;;;;2.72;100.00;95406.66;5025390;28;20072;-55
2021/03/14 04:49:17;;;;;;;2.38;2.28;;;;;;;2.55;100.00;95393.22;5070466;28;20473;-58
2021/03/14 04:51:45;;;;;;;2.53;2.42;;;;;;;2.46;100.00;95391.34;5027767;28;20494;-57
2021/03/14 04:54:13;;;;;;;2.90;2.80;;;;;;;2.66;100.00;95397.59;5069859;28;20041;-53
2021/03/14 04:56:41;;;;;;;2.55;2.45;;;;;;;2.61;100.00;95403.16;5033357;28;20155;-55
2021/03/14 04:59:09;;;;;;;2.85;2.70;;;;;;;2.66;100.00;95421.00;5078983;28;20048;-54
2021/03/14 05:01:37;;;;;;;3.03;2.83;;;;;;;2.65;100.00;95418.50;5028724;28;20045;-54
2021/03/14 05:04:07;;;;;;;2.90;2.75;;;;;;;2.65;100.00;95423.72;5067071;28;20125;-56
2021/03/14 05:06:34;;;;;;;2.35;2.25;;;;;;;2.57;100.00;95406.09;5032083;28;20473;-56
2021/03/14 05:09:03;;;;;;;2.40;2.30;;;;;;;2.52;100.00;95429.91;5073141;28;20053;-51
2021/03/14 05:11:31;;;;;;;2.70;2.60;;;;;;;2.53;100.00;95423.75;5026345;28;20076;-57
2021/03/14 05:13:59;;;;;;;2.58;2.47;;;;;;;2.47;100.00;95437.22;5065697;28;20128;-56
2021/03/14 05:16:27;;;;;;;2.75;2.65;;;;;;;2.52;100.00;95442.09;5031557;28;22563;-56
2021/03/14 05:18:54;;;;;;;2.45;2.35;;;;;;;2.43;100.00;95441.03;5065130;28;20047;-55
2021/03/14 05:21:22;;;;;;;2.35;2.25;;;;;;;2.45;100.00;95448.72;5039057;28;20048;-53
2021/03/14 05:23:50;;;;;;;2.58;2.47;;;;;;;2.39;100.00;95457.81;5056537;28;20064;-53
2021/03/14 05:26:17;;;;;;;2.40;2.30;;;;;;;2.40;100.00;95453.44;5077946;28;20040;-56
2021/03/14 05:28:45;;;;;;;2.70;2.60;;;;;;;2.37;100.00;95457.97;5031614;28;20087;-54
2021/03/14 05:31:28;;;;;;;2.63;2.53;;;;;;;2.30;100.00;95482.75;5070820;28;20044;-53
2021/03/14 05:33:56;;;;;;;2.50;2.40;;;;;;;2.35;100.00;95469.41;5032620;28;20048;-57
2021/03/14 05:36:24;;;;;;;2.85;2.75;;;;;;;2.43;100.00;95484.44;5060148;28;20037;-55
2021/03/14 05:38:51;;;;;;;2.85;2.75;;;;;;;2.38;100.00;95490.00;5039671;28;20055;-50
2021/03/14 05:41:18;;;;;;;2.80;2.70;;;;;;;2.38;100.00;95493.41;5061479;28;20106;-53
2021/03/14 05:43:46;;;;;;;2.95;2.75;;;;;;;2.46;100.00;95502.41;5043502;28;20044;-55
2021/03/14 05:46:13;;;;;;;2.60;2.50;;;;;;;2.45;100.00;95491.19;5063921;28;20090;-54
2021/03/14 05:48:42;;;;;;;2.60;2.50;;;;;;;2.45;100.00;95505.97;5016130;28;20186;-57
2021/03/14 05:51:09;;;;;;;2.83;2.72;;;;;;;2.44;100.00;95499.91;5067857;28;20044;-55
2021/03/14 05:53:40;;;;;;;2.85;2.75;;;;;;;2.54;100.00;95513.03;5028122;28;20068;-49
2021/03/14 05:56:08;;;;;;;2.70;2.60;;;;;;;2.48;100.00;95509.16;5064625;28;20040;-55
2021/03/14 05:58:36;;;;;;;2.50;2.40;;;;;;;2.51;100.00;95526.28;5033889;28;20044;-56
2021/03/14 06:01:07;;;;;;;2.63;2.53;;;;;;;2.55;100.00;95520.75;5072769;28;20449;-55
2021/03/14 06:03:36;;;;;;;2.65;2.55;;;;;;;2.54;100.00;95541.66;5030970;28;20049;-54
2021/03/14 06:06:04;;;;;;;2.40;2.30;;;;;;;2.53;100.00;95534.81;5066893;28;20040;-55
2021/03/14 06:08:31;;;;;;;2.70;2.60;;;;;;;2.49;100.00;95538.59;5028979;28;20043;-52
2021/03/14 06:11:01;;;;;;;2.63;2.53;;;;;;;2.61;100.00;95546.31;5060182;28;20049;-54
2021/03/14 06:13:28;;;;;;;2.67;2.58;;;;;;;2.50;100.00;95525.47;5022353;28;20052;-55
2021/03/14 06:15:55;;;;;;;2.80;2.70;;;;;;;2.47;100.00;95536.09;5067014;28;20076;-54
2021/03/14 06:18:23;;;;;;;2.72;2.63;;;;;;;2.52;100.00;95544.41;5067036;28;20044;-57
2021/03/14 06:20:50;;;;;;;2.92;2.78;;;;;;;2.59;100.00;95534.34;5042342;28;20051;-58
2021/03/14 06:23:18;;;;;;;3.13;2.92;;;;;;;2.55;100.00;95525.94;5070797;28;21533;-55
2021/03/14 06:25:49;;;;;;;2.50;2.40;;;;;;;2.80;100.00;95531.84;5029722;28;20046;-54
2021/03/14 06:28:36;;;;;;;2.92;2.75;;;;;;;2.80;100.00;95518.81;5069574;28;20078;-56
2021/03/14 06:31:17;;;;;;;2.65;2.53;;;;;;;2.73;100.00;95505.47;5036112;28;20117;-53
2021/03/14 06:33:44;;;;;;;2.78;2.67;;;;;;;2.80;100.00;95527.47;5062522;28;20580;-53
2021/03/14 06:36:15;;;;;;;2.50;2.40;;;;;;;2.83;100.00;95536.81;5033555;28;20094;-58
2021/03/14 06:38:42;;;;;;;2.80;2.60;;;;;;;2.80;100.00;95537.88;5060174;28;20506;-55
2021/03/14 06:41:15;;;;;;;2.70;2.50;;;;;;;2.73;100.00;95531.50;5033211;28;20577;-54
2021/03/14 06:43:47;;;;;;;2.83;2.72;;;;;;;2.91;100.00;95533.59;5065631;28;20090;-55
2021/03/14 06:46:20;;;;;;;;;;;;;;;3.04;100.00;95524.69;5018111;28;20044;-55
2021/03/14 06:48:48;;;;;;;2.50;2.40;;;;;;;2.96;100.00;95542.72;5066846;28;20014;-54
2021/03/14 06:51:33;;;;;;;2.58;2.47;;;;;;;2.90;100.00;95539.78;5020061;28;20087;-55
2021/03/14 06:54:28;;;;;;;2.67;2.58;;;;;;;3.09;100.00;95540.78;5077514;28;20068;-55
2021/03/14 06:57:04;;;;;;;2.70;2.60;;;;;;;3.15;100.00;95555.09;5023330;28;20047;-55
2021/03/14 06:59:33;;;;;;;2.60;2.50;;;;;;;3.21;100.00;95546.81;5076354;28;20048;-58
2021/03/14 07:02:02;;;;;;;2.33;2.22;;;;;;;3.15;100.00;95555.09;5032428;28;20044;-57
2021/03/14 07:04:38;;;;;;;2.65;2.50;;;;;;;3.14;100.00;95563.06;5064366;28;20048;-53
2021/03/14 07:07:06;;;;;;;2.70;2.50;;;;;;;3.13;100.00;95570.00;5029446;28;20035;-54
2021/03/14 07:09:33;;;;;;;2.63;2.53;;;;;;;3.23;100.00;95559.69;5061780;28;20707;-57
2021/03/14 07:12:00;;;;;;;2.50;2.40;;;;;;;3.15;100.00;95567.31;5023049;28;20522;-57
2021/03/14 07:14:28;;;;;;;2.40;2.30;;;;;;;3.15;100.00;95572.50;5058473;28;20040;-54
2021/03/14 07:16:57;;;;;;;2.58;2.47;;;;;;;3.19;100.00;95586.94;5028226;28;20041;-52
2021/03/14 07:19:26;;;;;;;2.70;2.60;;;;;;;3.19;100.00;95594.75;5063230;28;20078;-58
2021/03/14 07:22:00;;;;;;;2.40;2.30;;;;;;;3.23;100.00;95601.38;5017444;28;20040;-57
2021/03/14 07:24:33;;;;;;;2.40;2.30;;;;;;;3.14;100.00;95586.50;5063331;28;20081;-50
2021/03/14 07:27:02;;;;;;;2.40;2.30;;;;;;;3.21;100.00;95619.75;5024870;28;20055;-55
2021/03/14 07:29:29;;;;;;;2.53;2.42;;;;;;;3.09;100.00;95605.88;5069262;28;20044;-54
2021/03/14 07:31:58;;;;;;;2.58;2.47;;;;;;;3.13;100.00;95621.28;5034397;28;20048;-53
2021/03/14 07:34:25;;;;;;;2.97;2.78;;;;;;;3.29;100.00;95635.59;5067497;28;20040;-56
2021/03/14 07:36:54;;;;;;;3.50;2.45;;;;;;;3.24;100.00;95640.34;5024741;28;20067;-57
2021/03/14 07:39:22;;;;;;;3.00;2.80;;;;;;;3.26;100.00;95642.81;5075163;28;20039;-54
2021/03/14 07:41:49;;;;;;;2.30;2.20;;;;;;;3.46;100.00;95654.31;5022092;28;20047;-54
2021/03/14 07:44:18;;;;;;;2.75;2.55;;;;;;;3.67;100.00;95662.19;5066842;28;20177;-53
2021/03/14 07:46:46;;;;;;;2.47;2.38;;;;;;;3.44;100.00;95670.06;5066622;28;20519;-57
2021/03/14 07:49:15;;;;;;;2.20;2.10;;;;;;;3.45;100.00;95674.31;5018790;28;20068;-59
2021/03/14 07:51:45;;;;;;;2.57;2.47;;;;;;;3.39;100.00;95679.19;5052551;28;20036;-52
2021/03/14 07:54:17;;;;;;;2.63;2.42;;;;;;;3.57;100.00;95688.97;5022858;28;20048;-57
2021/03/14 07:56:45;;;;;;;2.92;2.72;;;;;;;3.29;100.00;95677.28;5080674;28;20040;-53
2021/03/14 07:59:12;;;;;;;2.40;2.30;;;;;;;3.15;100.00;95698.38;5028388;28;20049;-54
2021/03/14 08:01:40;;;;;;;2.60;2.40;;;;;;;3.31;100.00;95709.28;5073049;28;20483;-56
2021/03/14 08:04:29;;;;;;;2.58;2.38;;;;;;;3.51;100.00;95714.69;5036343;28;20039;-58
2021/03/14 08:06:56;;;;;;;2.50;2.40;;;;;;;3.61;100.00;95709.59;5062506;28;20032;-55
2021/03/14 08:09:43;;;;;;;2.72;2.53;;;;;;;3.94;100.00;95721.75;5042286;28;20040;-55
2021/03/14 08:12:18;;;;;;;2.60;2.40;;;;;;;3.78;100.00;95727.34;5063320;28;20519;-53
2021/03/14 08:14:46;;;;;;;2.53;2.38;;;;;;;3.76;100.00;95724.88;5011912;28;20037;-59
2021/03/14 08:17:14;;;;;;;2.78;2.38;;;;;;;3.99;100.00;95720.44;5065483;28;20055;-58
2021/03/14 08:19:43;;;;;;;2.17;2.08;;;;;;;3.85;100.00;95728.50;5010360;28;20099;-55
2021/03/14 08:22:45;;;;;;;2.30;2.20;;;;;;;4.20;100.00;95743.16;5053454;28;20044;-56
2021/03/14 08:25:26;;;;;;;2.10;2.00;;;;;;;3.99;100.00;95746.53;5016003;28;20117;-56
2021/03/14 08:27:58;;;;;;;2.10;2.00;;;;;;;4.28;100.00;95720.69;5075481;28;20072;-54
2021/03/14 08:30:48;;;;;;;2.20;2.10;;;;;;;4.45;100.00;95729.78;5025341;28;20480;-58
2021/03/14 08:33:42;;;;;;;2.10;2.00;;;;;;;4.89;100.00;95743.56;5065856;28;20052;-54
2021/03/14 08:36:13;;;;;;;2.33;2.00;;;;;;;4.90;100.00;95733.97;5076525;28;20069;-56
2021/03/14 08:38:48;;;;;;;1.80;1.70;;;;;;;4.81;100.00;95737.31;5045168;28;20040;-59
2021/03/14 08:41:31;;;;;;;2.28;2.10;;;;;;;4.77;100.00;95734.13;5040038;28;20400;-54
2021/03/14 08:44:01;;;;;;;2.22;2.08;;;;;;;4.56;100.00;95733.28;5069963;28;20048;-58
2021/03/14 08:47:05;;;;;;;2.17;2.08;;;;;;;4.39;100.00;95730.28;5047869;28;20404;-55
2021/03/14 08:49:34;;;;;;;2.25;2.05;;;;;;;4.37;100.00;95729.59;5030611;28;20036;-57
2021/03/14 08:52:03;;;;;;;2.03;1.92;;;;;;;4.47;100.00;95733.09;5044750;28;20041;-59
2021/03/14 08:54:38;;;;;;;2.20;2.10;;;;;;;4.45;100.00;95724.56;5041898;28;20045;-54
2021/03/14 08:57:08;;;;;;;2.40;2.20;;;;;;;4.94;100.00;95730.94;5065784;28;20055;-57
2021/03/14 08:59:35;;;;;;;2.28;2.13;;;;;;;4.73;100.00;95727.50;5060487;28;20044;-55
2021/03/14 09:02:04;;;;;;;2.20;2.00;;;;;;;4.44;100.00;95729.88;5025495;28;20037;-54
2021/03/14 09:04:33;;;;;;;2.10;2.00;;;;;;;4.40;100.00;95726.69;5064532;28;20044;-57
2021/03/14 09:07:08;;;;;;;2.00;1.90;;;;;;;4.45;100.00;95735.00;5020644;28;20037;-57
2021/03/14 09:09:36;;;;;;;2.03;1.90;;;;;;;4.19;100.00;95734.47;5063689;28;20048;-54
2021/03/14 09:12:07;;;;;;;2.08;1.98;;;;;;;4.14;100.00;95752.31;5034224;28;20072;-53
2021/03/14 09:14:37;;;;;;;2.00;1.90;;;;;;;3.92;100.00;95742.75;5066631;28;20041;-56
2021/03/14 09:17:10;;;;;;;2.10;2.00;;;;;;;4.01;100.00;95759.44;5025376;28;20040;-57
2021/03/14 09:19:40;;;;;;;2.30;2.10;;;;;;;3.93;100.00;95761.84;5050278;28;20087;-52
2021/03/14 09:22:09;;;;;;;2.40;2.20;;;;;;;3.84;100.00;95771.19;5014857;28;20071;-49
2021/03/14 09:24:54;;;;;;;2.58;2.38;;;;;;;3.84;100.00;95767.78;5073468;28;20064;-56
2021/03/14 09:27:22;;;;;;;2.42;2.30;;;;;;;3.84;100.00;95765.16;5026118;28;20040;-53
2021/03/14 09:29:51;;;;;;;2.30;2.20;;;;;;;3.90;100.00;95760.28;5065326;28;20040;-52
2021/03/14 09:32:35;;;;;;;2.58;2.38;;;;;;;4.24;100.00;95776.72;5027165;28;20106;-65
2021/03/14 09:35:24;;;;;;;2.35;2.20;;;;;;;3.95;100.00;95778.19;5067609;28;20044;-64
2021/03/14 09:37:55;;;;;;;2.15;2.05;;;;;;;3.89;100.00;95779.50;5016830;28;20438;-66
2021/03/14 09:40:33;;;;;;;2.70;2.50;;;;;;;3.78;100.00;95775.09;5062768;28;20447;-64
2021/03/14 09:43:15;;;;;;;2.40;2.30;;;;;;;4.09;100.00;95777.09;5023931;28;20040;-65
2021/03/14 09:45:45;;;;;;;2.03;1.92;;;;;;;4.63;100.00;95776.22;5064029;28;20520;-65
2021/03/14 09:48:15;;;;;;;2.35;2.25;;;;;;;4.65;100.00;95779.56;5024201;28;20037;-65
2021/03/14 09:50:45;;;;;;;2.22;2.10;;;;;;;4.85;100.00;95772.69;5062594;28;20086;-65
2021/03/14 09:53:14;;;;;;;2.38;2.00;;;;;;;5.04;100.00;95762.38;5024512;28;20072;-66
2021/03/14 09:55:42;;;;;;;3.45;2.13;;;;;;;5.12;100.00;95765.16;5071020;28;20513;-64
2021/03/14 09:58:12;;;;;;;2.05;1.95;;;;;;;5.34;100.00;95745.91;5031982;28;20072;-64
2021/03/14 10:00:39;;;;;;;2.53;2.00;;;;;;;5.26;100.00;95758.78;5066145;28;20068;-62
2021/03/14 10:03:08;;;;;;;3.10;2.00;;;;;;;5.24;100.00;95758.09;5026390;28;20044;-65
2021/03/14 10:05:37;;;;;;;2.35;2.15;;;;;;;5.31;100.00;95771.47;5073003;28;20043;-64
2021/03/14 10:08:05;;;;;;;2.00;1.90;;;;;;;5.30;100.00;95754.13;5032177;28;20499;-65
2021/03/14 10:10:35;;;;;;;3.35;1.85;;;;;;;5.25;100.00;95749.28;5071575;28;20068;-62
2021/03/14 10:13:15;;;;;;;2.13;2.00;;;;;;;5.38;100.00;95754.31;5027755;28;20040;-64
2021/03/14 10:15:43;;;;;;;2.22;2.00;;;;;;;5.47;100.00;95756.97;5066970;28;20067;-61
2021/03/14 10:18:10;;;;;;;2.47;2.28;;;;;;;5.26;100.00;95753.53;5027816;28;20131;-64
2021/03/14 10:20:38;;;;;;;3.40;2.08;;;;;;;5.53;100.00;95752.16;5065955;28;20041;-62
2021/03/14 10:23:24;;;;;;;2.42;2.20;;;;;;;5.71;100.00;95750.59;5020639;28;20511;-61
2021/03/14 10:25:52;;;;;;;7.97;2.53;;;;;;;5.26;100.00;95745.69;5068780;28;20048;-62
2021/03/14 10:28:20;;;;;;;2.50;2.00;;;;;;;5.18;100.00;95745.53;5041785;28;20546;-63
2021/03/14 10:30:48;;;;;;;3.08;2.10;;;;;;;5.40;100.00;95753.22;5062221;28;20070;-62
2021/03/14 10:33:16;;;;;;;2.92;2.38;;;;;;;5.37;100.00;95755.28;5059018;28;20110;-61
2021/03/14 10:35:45;;;;;;;3.45;2.10;;;;;;;5.32;100.00;95758.25;5054994;28;20416;-63
2021/03/14 10:38:16;;;;;;;4.22;2.30;;;;;;;5.68;100.00;95756.09;5062309;28;20048;-62
2021/03/14 10:40:43;;;;;;;2.22;1.90;;;;;;;5.74;100.00;95773.03;5032032;28;20052;-60
2021/03/14 10:43:18;;;;;;;3.42;2.25;;;;;;;5.92;100.00;95767.09;5064522;28;20079;-63
2021/03/14 10:45:46;;;;;;;2.60;2.03;;;;;;;5.83;100.00;95780.09;5030196;28;20461;-63
2021/03/14 10:48:13;;;;;;;3.08;2.20;;;;;;;5.84;100.00;95779.13;5062254;28;20036;-63
2021/03/14 10:50:40;;;;;;;4.25;2.22;;;;;;;5.81;100.00;95774.16;5015745;28;20048;-64
2021/03/14 10:53:26;;;;;;;2.10;1.95;;;;;;;5.94;100.00;95775.63;5062942;28;20063;-63
2021/03/14 10:56:11;;;;;;;1.95;1.80;;;;;;;6.30;100.00;95788.28;5025302;28;20040;-63
2021/03/14 10:58:40;;;;;;;2.42;2.00;;;;;;;6.15;100.00;95787.81;5069339;28;20064;-62
2021/03/14 11:01:11;;;;;;;1.88;1.77;;;;;;;6.06;100.00;95789.44;5030136;28;20102;-63
2021/03/14 11:03:40;;;;;;;2.22;1.88;;;;;;;6.29;100.00;95797.06;5062202;28;20497;-64
2021/03/14 11:06:12;;;;;;;2.22;1.90;;;;;;;6.30;100.00;95790.91;5032304;28;20508;-63
2021/03/14 11:08:47;;;;;;;3.92;1.90;;;;;;;6.38;100.00;95789.25;5063082;28;20090;-62
2021/03/14 11:11:14;;;;;;;2.15;1.80;;;;;;;6.32;100.00;95781.91;5023188;28;20603;-63
2021/03/14 11:13:42;;;;;;;3.13;2.10;;;;;;;6.28;100.00;95792.81;5065377;28;20064;-63
2021/03/14 11:16:10;;;;;;;2.45;1.98;;;;;;;6.11;100.00;95800.34;5020154;28;20068;-62
2021/03/14 11:18:37;;;;;;;3.58;2.30;;;;;;;5.96;100.00;95793.00;5061176;28;20048;-63
2021/03/14 11:21:04;;;;;;;2.58;2.13;;;;;;;5.99;100.00;95797.94;5017005;28;20060;-63
2021/03/14 11:23:31;;;;;;;2.22;2.00;;;;;;;6.47;100.00;95790.22;5051746;28;20110;-62
2021/03/14 11:25:58;;;;;;;3.13;2.00;;;;;;;6.30;100.00;95793.50;5024445;28;20133;-63
2021/03/14 11:28:25;;;;;;;2.75;2.03;;;;;;;6.33;100.00;95785.34;5062358;28;20142;-61
2021/03/14 11:30:53;;;;;;;3.08;2.17;;;;;;;6.12;96.80;95793.31;5026950;28;20037;-62
2021/03/14 11:33:19;;;;;;;2.53;2.33;;;;;;;6.00;100.00;95791.78;5061701;28;20071;-64
2021/03/14 11:35:46;;;;;;;2.65;2.17;;;;;;;5.87;100.00;95791.97;5034755;28;20160;-64
2021/03/14 11:38:13;;;;;;;2.17;2.00;;;;;;;5.54;100.00;95778.22;5055591;28;20048;-63
2021/03/14 11:40:41;;;;;;;4.40;2.35;;;;;;;5.87;100.00;95778.88;5063478;28;20579;-63
2021/03/14 11:43:10;;;;;;;4.07;2.20;;;;;;;5.84;100.00;95787.00;5015124;28;20584;-63
2021/03/14 11:45:36;;;;;;;2.17;2.00;;;;;;;5.87;100.00;95778.88;5061759;28;20068;-61